Time;durP1;ratioP1;P1;durP2;ratioP2;P2;SDS_P1;SDS_P2;PMS_P1;PMS_P2;Temp;Humidity;BMP_temperature;BMP_pressure;BME280_temperature;BME280_humidity;BME280_pressure;Samples;Min_cycle;Max_cycle;Signal;HPM_P1;HPM_P2
2022/07/26 00:01:20;;;;;;;23.63;3.90;;;18.50;99.90;;;;;;5055055;28;20049;-76
2022/07/26 00:03:47;;;;;;;18.67;3.77;;;18.50;99.90;;;;;;5041210;28;20060;-76
2022/07/26 00:06:13;;;;;;;19.70;3.97;;;18.50;99.90;;;;;;5039243;28;20139;-76
2022/07/26 00:08:38;;;;;;;14.70;2.97;;;18.40;99.90;;;;;;5063201;28;20128;-76
2022/07/26 00:11:05;;;;;;;16.77;4.07;;;18.50;99.90;;;;;;5041258;28;20247;-77
2022/07/26 00:13:30;;;;;;;20.50;4.00;;;18.50;99.90;;;;;;5042178;28;20527;-77
2022/07/26 00:15:58;;;;;;;17.60;3.83;;;18.50;99.90;;;;;;5042744;28;20163;-77
2022/07/26 00:18:24;;;;;;;18.77;3.63;;;18.50;99.90;;;;;;5045209;28;20040;-76
2022/07/26 00:20:50;;;;;;;20.03;3.93;;;18.50;99.90;;;;;;5064710;28;20052;-77
2022/07/26 00:23:15;;;;;;;20.00;4.20;;;18.50;99.90;;;;;;5058730;28;20042;-76
2022/07/26 00:25:41;;;;;;;22.00;4.00;;;18.50;99.90;;;;;;5063206;28;20059;-75
2022/07/26 00:28:07;;;;;;;23.60;4.23;;;18.50;99.90;;;;;;5043622;28;20044;-75
2022/07/26 00:30:33;;;;;;;18.60;4.30;;;18.50;99.90;;;;;;5061797;28;20048;-76
2022/07/26 00:33:00;;;;;;;19.40;3.47;;;18.40;99.90;;;;;;5063528;28;20058;-75
2022/07/26 00:35:26;;;;;;;14.93;3.50;;;18.50;99.90;;;;;;5052780;28;20055;-75
2022/07/26 00:37:52;;;;;;;19.27;4.20;;;18.40;99.90;;;;;;5021451;28;20053;-78
2022/07/26 00:40:18;;;;;;;23.23;4.20;;;18.40;99.90;;;;;;5040313;28;20052;-76
2022/07/26 00:42:43;;;;;;;19.43;3.97;;;18.30;99.90;;;;;;5037078;28;20158;-77
2022/07/26 00:45:11;;;;;;;23.17;4.50;;;18.30;99.90;;;;;;5046255;28;20044;-76
2022/07/26 00:47:37;;;;;;;18.80;3.90;;;18.30;99.90;;;;;;5041051;28;20056;-77
2022/07/26 00:50:07;;;;;;;20.13;4.30;;;18.30;99.90;;;;;;5066001;28;20037;-77
2022/07/26 00:52:33;;;;;;;22.97;4.23;;;18.30;99.90;;;;;;5056631;28;20059;-76
2022/07/26 00:54:59;;;;;;;22.23;3.90;;;18.30;99.90;;;;;;5065562;28;20438;-76
2022/07/26 00:57:25;;;;;;;24.20;4.03;;;18.20;99.90;;;;;;5043532;28;20415;-76
2022/07/26 00:59:51;;;;;;;16.90;4.67;;;18.20;99.90;;;;;;5056616;28;20047;-77
2022/07/26 01:02:17;;;;;;;18.47;4.60;;;18.20;99.90;;;;;;5047294;28;20037;-76
2022/07/26 01:04:43;;;;;;;17.97;3.80;;;18.20;99.90;;;;;;5025185;28;20047;-78
2022/07/26 01:07:12;;;;;;;20.97;4.37;;;18.10;99.90;;;;;;5047788;28;21760;-75
2022/07/26 01:09:38;;;;;;;20.93;4.47;;;18.10;99.90;;;;;;5041999;28;20072;-77
2022/07/26 01:12:04;;;;;;;23.57;4.43;;;18.10;99.90;;;;;;5059844;28;20047;-75
2022/07/26 01:14:30;;;;;;;19.23;3.40;;;18.10;99.90;;;;;;5028861;28;20037;-76
2022/07/26 01:16:56;;;;;;;22.17;4.60;;;18.00;99.90;;;;;;5037608;28;20059;-76
2022/07/26 01:19:22;;;;;;;20.57;4.83;;;18.00;99.90;;;;;;5043927;28;20077;-76
2022/07/26 01:21:50;;;;;;;26.17;4.37;;;17.90;99.90;;;;;;5053786;28;20032;-75
2022/07/26 01:24:15;;;;;;;20.33;4.37;;;17.90;99.90;;;;;;5049413;28;20044;-75
2022/07/26 01:26:41;;;;;;;16.03;3.90;;;17.90;99.90;;;;;;5051483;28;20056;-77
2022/07/26 01:29:07;;;;;;;17.37;4.57;;;17.90;99.90;;;;;;5038946;28;20365;-75
2022/07/26 01:31:33;;;;;;;21.90;4.33;;;17.90;99.90;;;;;;5039517;28;20436;-75
2022/07/26 01:33:58;;;;;;;19.53;4.37;;;17.90;99.90;;;;;;5024081;28;20053;-77
2022/07/26 01:36:24;;;;;;;19.87;4.37;;;17.90;99.90;;;;;;5045569;28;20036;-76
2022/07/26 01:38:51;;;;;;;21.27;5.07;;;17.90;99.90;;;;;;5054047;28;20583;-75
2022/07/26 01:41:17;;;;;;;23.07;5.33;;;17.90;99.90;;;;;;5074958;28;20110;-76
2022/07/26 01:43:43;;;;;;;25.27;4.97;;;17.90;99.90;;;;;;5044168;28;20040;-78
2022/07/26 01:46:09;;;;;;;18.23;4.40;;;17.90;99.90;;;;;;5060088;28;20043;-76
2022/07/26 01:48:35;;;;;;;21.10;4.93;;;17.80;99.90;;;;;;5045543;28;20492;-75
2022/07/26 01:51:01;;;;;;;19.83;4.70;;;17.80;99.90;;;;;;5034023;28;20500;-76
2022/07/26 01:53:27;;;;;;;18.73;4.93;;;17.70;99.90;;;;;;5046758;28;20389;-76
2022/07/26 01:55:56;;;;;;;21.27;4.43;;;17.70;99.90;;;;;;5038032;28;20080;-75
2022/07/26 01:58:22;;;;;;;20.60;4.43;;;17.70;99.90;;;;;;5043995;28;20052;-77
2022/07/26 02:00:47;;;;;;;22.93;4.90;;;17.70;99.90;;;;;;5063783;28;20045;-77
2022/07/26 02:03:13;;;;;;;16.40;4.47;;;17.70;99.90;;;;;;5072212;28;20064;-75
2022/07/26 02:05:39;;;;;;;18.87;3.93;;;17.70;99.90;;;;;;5061505;28;20446;-76
2022/07/26 02:08:05;;;;;;;20.90;4.27;;;17.70;99.90;;;;;;5037704;28;20098;-76
2022/07/26 02:13:17;;;;;;;19.20;4.57;;;17.70;99.90;;;;;;5056279;28;20494;-75
2022/07/26 02:15:43;;;;;;;20.43;4.20;;;17.70;99.90;;;;;;5061149;28;20250;-77
2022/07/26 02:18:09;;;;;;;22.17;4.43;;;17.70;99.90;;;;;;5063591;28;20043;-76
2022/07/26 02:20:34;;;;;;;16.30;4.10;;;17.70;99.90;;;;;;5038376;28;20048;-74
2022/07/26 02:23:01;;;;;;;19.77;4.37;;;17.70;99.90;;;;;;5073407;28;20041;-74
2022/07/26 02:25:27;;;;;;;14.30;4.07;;;17.70;99.90;;;;;;5058861;28;20052;-74
2022/07/26 02:27:53;;;;;;;18.80;4.80;;;17.70;99.90;;;;;;5051164;28;20124;-74
2022/07/26 02:30:20;;;;;;;19.30;4.47;;;17.70;99.90;;;;;;5052010;28;20049;-75
2022/07/26 02:32:46;;;;;;;17.20;4.40;;;17.70;99.90;;;;;;5039211;28;20051;-75
2022/07/26 02:35:12;;;;;;;16.00;4.00;;;17.70;99.90;;;;;;5052476;28;20048;-75
2022/07/26 02:37:39;;;;;;;20.33;4.17;;;17.70;99.90;;;;;;5042431;28;20433;-76
2022/07/26 02:40:05;;;;;;;16.03;4.20;;;17.70;99.90;;;;;;5050838;28;20036;-76
2022/07/26 02:42:31;;;;;;;15.73;4.13;;;17.70;99.90;;;;;;5039262;28;20059;-75
2022/07/26 02:44:57;;;;;;;19.67;4.23;;;17.70;99.90;;;;;;5063329;28;20102;-76
2022/07/26 02:47:24;;;;;;;18.27;4.17;;;17.70;99.90;;;;;;5065285;28;20047;-76
2022/07/26 02:49:50;;;;;;;16.53;3.77;;;17.70;99.90;;;;;;5058469;28;20061;-76
2022/07/26 02:52:16;;;;;;;16.57;4.40;;;17.70;99.90;;;;;;5049378;28;20039;-76
2022/07/26 02:54:42;;;;;;;14.37;4.27;;;17.70;99.90;;;;;;5056727;28;20498;-76
2022/07/26 02:57:07;;;;;;;16.27;4.70;;;17.70;99.90;;;;;;5043915;28;20535;-77
2022/07/26 02:59:33;;;;;;;17.23;4.13;;;17.70;99.90;;;;;;5049199;28;20502;-76
2022/07/26 03:01:59;;;;;;;12.10;3.87;;;17.70;99.90;;;;;;5058084;28;20040;-77
2022/07/26 03:04:26;;;;;;;13.80;3.83;;;17.70;99.90;;;;;;5041758;28;20403;-76
2022/07/26 03:06:52;;;;;;;15.10;3.97;;;17.60;99.90;;;;;;5039860;28;20053;-76
2022/07/26 03:09:17;;;;;;;12.40;3.87;;;17.70;99.90;;;;;;5066524;28;20051;-76
2022/07/26 03:11:58;;;;;;;11.73;3.50;;;17.70;99.90;;;;;;5021286;28;20159;-77
2022/07/26 03:14:24;;;;;;;14.70;3.63;;;17.70;99.90;;;;;;5064417;28;20484;-77
2022/07/26 03:16:50;;;;;;;11.37;3.70;;;17.70;99.90;;;;;;5062782;28;20105;-76
2022/07/26 03:19:16;;;;;;;15.30;3.70;;;17.70;99.90;;;;;;5059690;28;20044;-76
2022/07/26 03:21:43;;;;;;;16.03;3.50;;;17.60;99.90;;;;;;5049608;28;20044;-76
2022/07/26 03:24:08;;;;;;;11.30;3.07;;;17.60;99.90;;;;;;5059291;28;20493;-75
2022/07/26 03:26:34;;;;;;;12.93;3.80;;;17.60;99.90;;;;;;5063113;28;20135;-76
2022/07/26 03:29:00;;;;;;;15.57;3.73;;;17.60;99.90;;;;;;5063404;28;20040;-75
2022/07/26 03:31:26;;;;;;;11.13;3.47;;;17.70;99.90;;;;;;5039875;28;20041;-76
2022/07/26 03:33:51;;;;;;;9.90;3.37;;;17.70;99.90;;;;;;5047731;28;20094;-77
2022/07/26 03:36:17;;;;;;;8.43;3.13;;;17.70;99.90;;;;;;5038661;28;20491;-76
2022/07/26 03:38:44;;;;;;;8.60;2.90;;;17.70;99.90;;;;;;5064626;28;20511;-76
2022/07/26 03:41:10;;;;;;;7.73;2.43;;;17.80;99.90;;;;;;5046221;28;20439;-77
2022/07/26 03:43:36;;;;;;;7.83;2.30;;;17.80;99.90;;;;;;5060343;28;20086;-77
2022/07/26 03:46:02;;;;;;;9.80;2.30;;;17.70;99.90;;;;;;5066287;28;20465;-77
2022/07/26 03:48:29;;;;;;;7.60;2.30;;;17.80;99.90;;;;;;5056929;28;20500;-77
2022/07/26 03:50:55;;;;;;;6.60;2.30;;;17.80;99.90;;;;;;5047151;28;20040;-76
2022/07/26 03:53:20;;;;;;;8.60;2.20;;;17.70;99.90;;;;;;5043874;28;20059;-76
2022/07/26 03:58:32;;;;;;;8.83;2.47;;;17.70;99.90;;;;;;5060084;28;20200;-76
2022/07/26 04:00:57;;;;;;;8.33;2.70;;;17.80;99.90;;;;;;5069672;28;20495;-77
2022/07/26 04:03:24;;;;;;;9.20;2.10;;;17.80;99.90;;;;;;5062727;28;20071;-76
2022/07/26 04:05:49;;;;;;;7.33;2.30;;;17.80;99.90;;;;;;5051803;28;20048;-77
2022/07/26 04:08:15;;;;;;;6.17;2.30;;;17.80;99.90;;;;;;5066673;28;20415;-76
2022/07/26 04:10:44;;;;;;;9.47;3.07;;;17.80;99.90;;;;;;5048727;28;20048;-76
2022/07/26 04:13:11;;;;;;;8.50;2.47;;;17.80;99.90;;;;;;5041826;28;20323;-77
2022/07/26 04:15:37;;;;;;;10.90;2.57;;;17.80;99.90;;;;;;5049714;28;20045;-76
2022/07/26 04:18:03;;;;;;;7.30;2.33;;;17.90;99.90;;;;;;5054771;28;20052;-76
2022/07/26 04:20:28;;;;;;;10.20;2.40;;;17.80;99.90;;;;;;5040450;28;20041;-77
2022/07/26 04:22:54;;;;;;;9.93;2.10;;;17.80;99.90;;;;;;5037658;28;20471;-77
2022/07/26 04:25:20;;;;;;;9.63;2.60;;;17.80;99.90;;;;;;5055662;28;20049;-76
2022/07/26 04:27:46;;;;;;;8.90;2.20;;;17.80;99.90;;;;;;5065551;28;20063;-77
2022/07/26 04:30:13;;;;;;;8.07;2.10;;;17.80;99.90;;;;;;5042225;28;20120;-77
2022/07/26 04:32:39;;;;;;;9.87;2.30;;;17.80;99.90;;;;;;5040604;28;20124;-76
2022/07/26 04:35:05;;;;;;;7.63;2.60;;;17.80;99.90;;;;;;5036188;28;20139;-77
2022/07/26 04:37:37;;;;;;;6.10;2.13;;;17.80;99.90;;;;;;5045419;28;20040;-77
2022/07/26 04:40:04;;;;;;;8.77;1.77;;;17.80;99.90;;;;;;5046241;28;20131;-77
2022/07/26 04:42:30;;;;;;;17.27;2.83;;;17.80;99.90;;;;;;5059807;28;20186;-77
2022/07/26 04:44:55;;;;;;;10.23;2.30;;;17.80;99.90;;;;;;5059232;28;20560;-77
2022/07/26 04:47:22;;;;;;;8.90;1.60;;;17.80;99.90;;;;;;5038521;28;20048;-77
2022/07/26 04:49:48;;;;;;;6.30;1.90;;;17.80;99.90;;;;;;5060442;28;20040;-77
2022/07/26 04:52:14;;;;;;;9.67;2.00;;;17.80;99.90;;;;;;5028575;28;20054;-77
2022/07/26 04:54:40;;;;;;;10.77;1.90;;;17.80;99.90;;;;;;5048729;28;20055;-77
2022/07/26 04:57:05;;;;;;;7.97;1.53;;;17.80;99.90;;;;;;5041743;28;20138;-77
2022/07/26 04:59:31;;;;;;;8.07;1.60;;;17.80;99.90;;;;;;5057166;28;20116;-77
2022/07/26 05:01:57;;;;;;;8.60;1.80;;;17.90;99.90;;;;;;5049445;28;20051;-77
2022/07/26 05:04:25;;;;;;;12.60;2.00;;;17.90;99.90;;;;;;5041905;28;20044;-77
2022/07/26 05:06:50;;;;;;;8.37;1.63;;;17.80;99.90;;;;;;5061450;28;20515;-76
2022/07/26 05:09:16;;;;;;;7.40;1.80;;;17.80;99.90;;;;;;5040143;28;20045;-77
2022/07/26 05:11:42;;;;;;;6.77;1.63;;;17.80;99.90;;;;;;5058355;28;20479;-77
2022/07/26 05:14:08;;;;;;;5.77;1.53;;;17.80;99.90;;;;;;5043530;28;20040;-77
2022/07/26 05:16:33;;;;;;;8.10;1.70;;;17.80;99.90;;;;;;5040077;28;20041;-77
2022/07/26 05:18:59;;;;;;;8.43;1.67;;;17.90;99.90;;;;;;5043704;28;20048;-76
2022/07/26 05:21:26;;;;;;;6.40;1.80;;;17.90;99.90;;;;;;5056911;28;20052;-77
2022/07/26 05:23:53;;;;;;;7.97;1.60;;;18.00;99.90;;;;;;5063531;28;20130;-77
2022/07/26 05:26:18;;;;;;;8.73;1.47;;;18.00;99.90;;;;;;5045563;28;20543;-77
2022/07/26 05:28:44;;;;;;;9.00;1.47;;;18.00;99.90;;;;;;5043003;28;20128;-77
2022/07/26 05:31:10;;;;;;;8.57;1.87;;;18.00;99.90;;;;;;5068932;28;20086;-78
2022/07/26 05:33:36;;;;;;;7.33;1.40;;;17.90;99.90;;;;;;5054890;28;20068;-78
2022/07/26 05:36:01;;;;;;;9.03;1.47;;;17.90;99.90;;;;;;5053976;28;20052;-78
2022/07/26 05:38:28;;;;;;;7.90;1.30;;;18.00;99.90;;;;;;5038015;28;20557;-77
2022/07/26 05:40:54;;;;;;;7.30;1.43;;;18.00;99.90;;;;;;5065273;28;20048;-78
2022/07/26 05:43:20;;;;;;;6.70;1.23;;;18.00;99.90;;;;;;5070830;28;20039;-78
2022/07/26 05:45:46;;;;;;;9.13;1.23;;;18.00;99.90;;;;;;5070906;28;20503;-78
2022/07/26 05:48:11;;;;;;;8.20;1.37;;;18.00;99.90;;;;;;5053650;28;20071;-78
2022/07/26 05:50:37;;;;;;;10.00;1.43;;;18.00;99.90;;;;;;5070480;28;20040;-78
2022/07/26 05:53:03;;;;;;;8.20;1.30;;;18.00;99.90;;;;;;5069844;28;20048;-78
2022/07/26 05:55:30;;;;;;;8.20;1.17;;;18.10;99.90;;;;;;5062346;28;20049;-78
2022/07/26 05:57:56;;;;;;;6.43;1.43;;;18.10;99.90;;;;;;5044728;28;20131;-78
2022/07/26 06:00:21;;;;;;;4.97;1.00;;;18.10;99.90;;;;;;5028313;28;20771;-78
2022/07/26 06:02:47;;;;;;;6.10;1.40;;;18.20;99.90;;;;;;5045571;28;20044;-78
2022/07/26 06:05:14;;;;;;;3.77;1.13;;;18.20;99.90;;;;;;5050191;28;20149;-78
2022/07/26 06:07:40;;;;;;;8.10;1.20;;;18.20;99.90;;;;;;5057431;28;20048;-78
2022/07/26 06:10:07;;;;;;;6.97;1.20;;;18.30;99.90;;;;;;5073558;28;20041;-78
2022/07/26 06:12:34;;;;;;;6.27;1.10;;;18.30;99.90;;;;;;5069488;28;20131;-79
2022/07/26 06:15:00;;;;;;;7.37;1.50;;;18.30;99.90;;;;;;5073989;28;20052;-78
2022/07/26 06:17:28;;;;;;;5.10;1.17;;;18.30;99.90;;;;;;5073654;28;20475;-78
2022/07/26 06:19:54;;;;;;;9.60;1.20;;;18.40;99.90;;;;;;5040693;28;20090;-77
2022/07/26 06:22:20;;;;;;;8.57;1.53;;;18.40;99.90;;;;;;5058052;28;20040;-78
2022/07/26 06:24:46;;;;;;;5.33;1.20;;;18.40;99.90;;;;;;5073412;28;20037;-78
2022/07/26 06:27:11;;;;;;;6.37;0.93;;;18.40;99.90;;;;;;5053630;28;20397;-78
2022/07/26 06:29:39;;;;;;;6.83;1.43;;;18.30;99.90;;;;;;5053836;28;20052;-78
2022/07/26 06:32:05;;;;;;;7.03;1.40;;;18.30;99.90;;;;;;5037518;28;20131;-78
2022/07/26 06:34:31;;;;;;;3.97;1.00;;;18.30;99.90;;;;;;5053528;28;20040;-77
2022/07/26 06:36:57;;;;;;;5.67;0.93;;;18.40;99.90;;;;;;5036904;28;20047;-78
2022/07/26 06:39:23;;;;;;;5.77;1.20;;;18.40;99.90;;;;;;5063506;28;20059;-78
2022/07/26 06:41:49;;;;;;;5.03;1.03;;;18.50;99.90;;;;;;5042592;28;20415;-77
2022/07/26 06:44:21;;;;;;;6.03;0.97;;;18.50;99.90;;;;;;5040831;28;20109;-78
2022/07/26 06:46:48;;;;;;;4.50;0.93;;;18.60;99.90;;;;;;5040234;28;20063;-78
2022/07/26 06:49:14;;;;;;;5.40;0.90;;;18.70;99.90;;;;;;5056657;28;20055;-77
2022/07/26 06:51:40;;;;;;;3.13;1.03;;;18.70;99.90;;;;;;5057611;28;20037;-78
2022/07/26 06:54:05;;;;;;;5.03;1.20;;;18.80;99.90;;;;;;5064662;28;20415;-76
2022/07/26 06:56:31;;;;;;;8.70;1.13;;;18.80;99.90;;;;;;5073003;28;20090;-78
2022/07/26 06:58:57;;;;;;;9.03;1.00;;;18.90;99.90;;;;;;5057103;28;20567;-78
2022/07/26 07:01:23;;;;;;;3.03;0.63;;;18.90;99.90;;;;;;5074046;28;20526;-79
2022/07/26 07:03:50;;;;;;;6.80;0.70;;;18.90;99.90;;;;;;5057283;28;20573;-79
2022/07/26 07:06:16;;;;;;;4.07;0.80;;;18.80;99.90;;;;;;5049538;28;20044;-78
2022/07/26 07:08:41;;;;;;;4.83;0.80;;;18.80;99.90;;;;;;5070146;28;20056;-79
2022/07/26 07:11:07;;;;;;;6.20;1.13;;;18.80;99.90;;;;;;5075124;28;20048;-79
2022/07/26 07:13:33;;;;;;;11.17;1.20;;;18.80;99.90;;;;;;5073913;28;20143;-79
2022/07/26 07:15:59;;;;;;;4.97;1.00;;;18.80;99.90;;;;;;5057715;28;20048;-79
2022/07/26 07:18:25;;;;;;;4.93;0.80;;;18.90;99.90;;;;;;5074459;28;20094;-79
2022/07/26 07:20:52;;;;;;;2.80;0.60;;;18.90;99.90;;;;;;5066979;28;20044;-80
2022/07/26 07:23:21;;;;;;;3.23;0.80;;;19.00;99.90;;;;;;5066483;28;20064;-78
2022/07/26 07:25:47;;;;;;;6.67;0.80;;;19.10;99.90;;;;;;5065823;28;20411;-79
2022/07/26 07:28:12;;;;;;;5.73;1.23;;;19.00;99.90;;;;;;5028113;28;20125;-79
2022/07/26 07:30:38;;;;;;;7.70;0.90;;;19.00;99.90;;;;;;5053349;28;20048;-77
2022/07/26 07:33:04;;;;;;;6.97;1.20;;;19.00;99.90;;;;;;5037503;28;20056;-79
2022/07/26 07:35:30;;;;;;;6.60;0.90;;;19.00;99.90;;;;;;5046799;28;20033;-79
2022/07/26 07:37:57;;;;;;;7.50;1.00;;;18.90;99.90;;;;;;5069144;28;20072;-79
2022/07/26 07:40:23;;;;;;;4.83;1.00;;;18.90;99.90;;;;;;5054336;28;20060;-79
2022/07/26 07:42:48;;;;;;;4.63;1.13;;;18.80;99.90;;;;;;5056356;28;20044;-79
2022/07/26 07:45:14;;;;;;;7.83;0.93;;;18.80;99.90;;;;;;5051371;28;20044;-79
2022/07/26 07:47:40;;;;;;;5.37;0.90;;;18.70;99.90;;;;;;5058326;28;20045;-79
2022/07/26 07:50:07;;;;;;;5.33;0.93;;;18.60;99.90;;;;;;5044320;28;20063;-79
2022/07/26 07:52:32;;;;;;;6.00;1.00;;;18.60;99.90;;;;;;5053219;28;20546;-79
2022/07/26 07:55:00;;;;;;;6.10;1.10;;;18.70;99.90;;;;;;5058861;28;20086;-79
2022/07/26 07:57:25;;;;;;;6.23;0.90;;;18.70;99.90;;;;;;5070718;28;20083;-79
2022/07/26 07:59:51;;;;;;;8.50;1.17;;;18.80;99.90;;;;;;5066745;28;20521;-78
2022/07/26 08:02:17;;;;;;;8.63;1.00;;;18.90;99.90;;;;;;5046658;28;20041;-79
2022/07/26 08:04:42;;;;;;;5.70;1.20;;;18.90;99.90;;;;;;5045484;28;20072;-78
2022/07/26 08:07:08;;;;;;;4.63;1.10;;;18.90;99.90;;;;;;5050876;28;20095;-79
2022/07/26 08:09:34;;;;;;;5.37;0.90;;;18.90;99.90;;;;;;5051972;28;20033;-79
2022/07/26 08:12:01;;;;;;;6.20;1.23;;;19.00;99.90;;;;;;5052436;28;20052;-78
2022/07/26 08:14:27;;;;;;;6.83;1.20;;;19.00;99.90;;;;;;5042518;28;20072;-79
2022/07/26 08:16:53;;;;;;;3.00;0.80;;;19.20;99.90;;;;;;5035643;28;20084;-78
2022/07/26 08:19:18;;;;;;;4.97;0.80;;;19.30;99.90;;;;;;5060107;28;20569;-79
2022/07/26 08:21:45;;;;;;;6.47;0.97;;;19.50;99.90;;;;;;5056509;28;20072;-79
2022/07/26 08:24:10;;;;;;;6.80;0.97;;;19.50;99.90;;;;;;5058633;28;20075;-79
2022/07/26 08:26:36;;;;;;;3.40;0.80;;;19.70;99.90;;;;;;5052591;28;20422;-78
2022/07/26 08:29:03;;;;;;;5.03;1.00;;;19.80;99.90;;;;;;5046231;28;20040;-78
2022/07/26 08:31:29;;;;;;;11.20;1.30;;;20.00;99.90;;;;;;5057011;28;20048;-79
2022/07/26 08:33:55;;;;;;;8.90;1.10;;;20.00;99.90;;;;;;5022021;28;20051;-79
2022/07/26 08:36:21;;;;;;;7.20;1.00;;;20.30;99.90;;;;;;5052672;28;20048;-80
2022/07/26 08:38:47;;;;;;;7.27;0.97;;;20.50;99.90;;;;;;5070529;28;20040;-78
2022/07/26 08:41:12;;;;;;;7.33;1.00;;;20.60;99.90;;;;;;5070547;28;20075;-78
2022/07/26 08:43:38;;;;;;;7.60;1.27;;;20.70;99.90;;;;;;5045860;28;20033;-79
2022/07/26 08:46:05;;;;;;;3.37;1.03;;;20.60;99.90;;;;;;5043561;28;20047;-78
2022/07/26 08:48:31;;;;;;;3.73;0.83;;;20.60;99.90;;;;;;5059285;28;20079;-78
2022/07/26 08:50:59;;;;;;;6.97;1.37;;;20.80;99.90;;;;;;5049516;28;20557;-78
2022/07/26 08:53:28;;;;;;;5.23;1.30;;;20.90;99.90;;;;;;5046453;28;20040;-78
2022/07/26 08:55:55;;;;;;;6.23;1.47;;;21.00;99.90;;;;;;5052782;28;20102;-78
2022/07/26 08:58:21;;;;;;;8.50;1.37;;;21.10;99.90;;;;;;5022946;28;20064;-77
2022/07/26 09:01:02;;;;;;;5.13;1.10;;;21.10;99.90;;;;;;5045582;28;20110;-78
2022/07/26 09:03:30;;;;;;;7.17;1.23;;;21.10;99.90;;;;;;5040230;28;20056;-79
2022/07/26 09:06:09;;;;;;;7.73;1.37;;;20.80;99.90;;;;;;5057554;28;20484;-78
2022/07/26 09:08:36;;;;;;;5.17;0.90;;;20.60;99.90;;;;;;5061943;28;20246;-79
2022/07/26 09:11:01;;;;;;;3.00;0.90;;;20.30;99.90;;;;;;5053160;28;20055;-78
2022/07/26 09:13:49;;;;;;;6.07;1.30;;;20.20;99.90;;;;;;5067314;28;20041;-78
2022/07/26 09:16:14;;;;;;;4.80;1.10;;;20.10;99.90;;;;;;5017396;28;20044;-77
2022/07/26 09:18:41;;;;;;;4.00;0.90;;;20.00;99.90;;;;;;5049306;28;20562;-77
2022/07/26 09:21:24;;;;;;;6.27;1.77;;;20.00;99.90;;;;;;5035314;28;20065;-78
2022/07/26 09:23:50;;;;;;;7.53;1.40;;;20.10;99.90;;;;;;5078066;28;20037;-79
2022/07/26 09:26:19;;;;;;;5.27;1.17;;;20.20;99.90;;;;;;5048861;28;20410;-79
2022/07/26 09:28:44;;;;;;;9.37;1.60;;;20.30;99.90;;;;;;5049227;28;20086;-78
2022/07/26 09:31:11;;;;;;;6.17;1.20;;;20.40;99.90;;;;;;5065961;28;20052;-78
2022/07/26 09:33:44;;;;;;;6.23;1.70;;;20.60;99.90;;;;;;5047807;28;20124;-79
2022/07/26 09:36:10;;;;;;;8.02;1.30;;;20.70;99.90;;;;;;5047690;28;20047;-77
2022/07/26 09:38:40;;;;;;;6.30;1.30;;;21.00;99.90;;;;;;5051753;28;20040;-79
2022/07/26 09:41:18;;;;;;;9.07;1.53;;;21.00;99.90;;;;;;5041816;28;20095;-78
2022/07/26 09:43:44;;;;;;;6.57;1.07;;;21.10;99.90;;;;;;5033120;28;20144;-79
2022/07/26 09:46:10;;;;;;;6.70;1.33;;;21.30;99.90;;;;;;5053058;28;20127;-79
2022/07/26 09:48:38;;;;;;;6.10;1.10;;;21.40;99.90;;;;;;5067765;28;20039;-78
2022/07/26 09:51:05;;;;;;;3.50;0.93;;;21.50;99.90;;;;;;5059295;28;20131;-79
2022/07/26 09:53:38;;;;;;;9.43;1.30;;;21.60;99.90;;;;;;5058560;28;20102;-79
2022/07/26 09:56:04;;;;;;;6.38;1.00;;;21.70;99.90;;;;;;5057942;28;20047;-78
2022/07/26 09:58:31;;;;;;;8.68;1.38;;;21.70;99.90;;;;;;5058352;28;20047;-79
2022/07/26 10:00:57;;;;;;;5.53;1.53;;;21.80;99.90;;;;;;5044554;28;20041;-78
2022/07/26 10:03:23;;;;;;;5.73;1.20;;;21.80;99.90;;;;;;5034418;28;20045;-78
2022/07/26 10:05:48;;;;;;;7.25;1.67;;;21.70;99.90;;;;;;5043384;28;20044;-78
2022/07/26 10:08:17;;;;;;;7.90;1.40;;;21.40;99.90;;;;;;5054164;28;20503;-78
2022/07/26 10:10:49;;;;;;;6.33;2.00;;;21.00;99.90;;;;;;5039482;28;20128;-78
2022/07/26 10:13:16;;;;;;;9.93;1.60;;;20.80;99.90;;;;;;5053855;28;20048;-78
2022/07/26 10:15:43;;;;;;;9.07;1.47;;;20.60;99.90;;;;;;5030901;28;20037;-78
2022/07/26 10:18:10;;;;;;;6.97;1.70;;;20.50;99.90;;;;;;5034148;28;20677;-78
2022/07/26 10:20:45;;;;;;;5.65;1.30;;;20.40;99.90;;;;;;5045906;28;20048;-78
2022/07/26 10:23:35;;;;;;;9.33;1.67;;;20.40;99.90;;;;;;5069192;28;20098;-78
2022/07/26 10:26:02;;;;;;;10.57;1.70;;;20.40;99.90;;;;;;5037789;28;20423;-78
2022/07/26 10:28:29;;;;;;;10.10;2.07;;;20.60;99.90;;;;;;5070223;28;20032;-78
2022/07/26 10:31:25;;;;;;;9.97;1.90;;;20.90;99.90;;;;;;5055148;28;20045;-78
2022/07/26 10:33:52;;;;;;;8.03;2.13;;;21.10;99.90;;;;;;5033261;28;20041;-77
2022/07/26 10:36:23;;;;;;;14.50;2.23;;;21.30;99.90;;;;;;5044574;28;20123;-78
2022/07/26 10:38:59;;;;;;;10.20;2.30;;;21.40;99.90;;;;;;5045741;28;20277;-77
2022/07/26 10:41:33;;;;;;;12.67;2.50;;;21.20;99.90;;;;;;5046699;28;20081;-77
2022/07/26 10:44:18;;;;;;;8.70;2.10;;;20.90;99.90;;;;;;5025903;28;20067;-80
2022/07/26 10:47:01;;;;;;;14.23;2.70;;;20.60;99.90;;;;;;5068616;28;20052;-78
2022/07/26 10:49:33;;;;;;;11.00;2.30;;;20.20;99.90;;;;;;5058277;28;20074;-78
2022/07/26 10:52:08;;;;;;;11.80;2.27;;;19.90;99.90;;;;;;5073147;28;20048;-78
2022/07/26 10:55:12;;;;;;;10.77;2.20;;;19.60;99.90;;;;;;5033580;28;20068;-78
2022/07/26 10:57:41;;;;;;;12.87;2.20;;;19.40;99.90;;;;;;5037203;28;20550;-79
2022/07/26 11:00:10;;;;;;;14.43;2.50;;;19.30;99.90;;;;;;5036842;28;20041;-78
2022/07/26 11:02:36;;;;;;;12.47;2.13;;;19.50;99.90;;;;;;5037135;28;20512;-78
2022/07/26 11:05:04;;;;;;;11.93;2.70;;;19.80;99.90;;;;;;5053693;28;20033;-77
2022/07/26 11:07:30;;;;;;;14.90;2.30;;;20.10;99.90;;;;;;5064813;28;20072;-78
2022/07/26 11:09:56;;;;;;;11.33;2.20;;;20.30;99.90;;;;;;5036554;28;20087;-78
2022/07/26 11:12:22;;;;;;;9.40;2.47;;;20.60;99.90;;;;;;5053245;28;20137;-79
2022/07/26 11:14:50;;;;;;;14.23;2.60;;;20.80;99.90;;;;;;5036815;28;20567;-78
2022/07/26 11:17:22;;;;;;;10.53;2.40;;;20.90;99.90;;;;;;5036772;28;20385;-79
2022/07/26 11:19:48;;;;;;;12.60;2.47;;;21.20;99.90;;;;;;5061015;28;20048;-79
2022/07/26 11:22:14;;;;;;;12.57;2.60;;;21.40;99.90;;;;;;5038553;28;20037;-78
2022/07/26 11:24:40;;;;;;;12.40;2.57;;;21.40;99.90;;;;;;5056785;28;20094;-78
2022/07/26 11:27:05;;;;;;;13.10;2.10;;;21.30;99.90;;;;;;5073081;28;20051;-78
2022/07/26 11:29:33;;;;;;;11.77;2.47;;;21.10;99.90;;;;;;5073872;28;20127;-77
2022/07/26 11:32:00;;;;;;;12.30;2.40;;;20.90;99.90;;;;;;5073045;28;20083;-78
2022/07/26 11:34:29;;;;;;;12.37;1.77;;;20.90;99.90;;;;;;5052388;28;20044;-78
2022/07/26 11:36:56;;;;;;;11.10;1.90;;;21.00;99.90;;;;;;5048202;28;20037;-78
2022/07/26 11:39:23;;;;;;;8.80;1.60;;;21.20;99.90;;;;;;5056467;28;20041;-78
2022/07/26 11:41:55;;;;;;;14.43;2.10;;;21.30;99.90;;;;;;5052364;28;20052;-78
2022/07/26 11:44:22;;;;;;;11.80;1.92;;;21.40;99.90;;;;;;5055733;28;20041;-78
2022/07/26 11:46:48;;;;;;;8.43;1.83;;;21.50;99.90;;;;;;5054540;28;20041;-78
2022/07/26 11:49:18;;;;;;;8.75;1.73;;;21.40;99.60;;;;;;5026589;28;20633;-78
2022/07/26 11:51:49;;;;;;;6.77;1.80;;;21.30;99.40;;;;;;5057211;28;20055;-78
2022/07/26 11:54:15;;;;;;;10.00;1.70;;;21.20;99.00;;;;;;5050564;28;20048;-79
2022/07/26 11:56:49;;;;;;;12.67;2.10;;;21.00;99.20;;;;;;5035611;28;20040;-78
2022/07/26 11:59:15;;;;;;;;;;;21.00;99.00;;;;;;5064207;28;20048;-79
2022/07/26 12:01:43;;;;;;;9.20;1.90;;;20.90;99.10;;;;;;5052347;28;19916;-78
2022/07/26 12:04:19;;;;;;;6.73;1.53;;;21.00;99.40;;;;;;5050787;28;20036;-78
2022/07/26 12:06:44;;;;;;;6.83;1.70;;;21.20;99.00;;;;;;5050179;28;20045;-78
2022/07/26 12:09:10;;;;;;;8.90;2.00;;;21.40;98.40;;;;;;5040699;28;20140;-78
2022/07/26 12:11:43;;;;;;;8.77;1.90;;;21.50;98.10;;;;;;5062276;28;20033;-79
2022/07/26 12:14:09;;;;;;;11.45;1.85;;;21.60;98.10;;;;;;5048418;28;20223;-79
2022/07/26 12:16:38;;;;;;;8.70;2.17;;;21.50;98.40;;;;;;5039343;28;20484;-78
2022/07/26 12:19:05;;;;;;;8.75;1.63;;;21.50;97.10;;;;;;5050877;28;20056;-77
2022/07/26 12:21:40;;;;;;;8.73;1.40;;;21.40;98.00;;;;;;5052442;28;20441;-77
2022/07/26 12:24:06;;;;;;;6.28;1.55;;;21.40;97.60;;;;;;5036180;28;20048;-78
2022/07/26 12:26:32;;;;;;;7.50;1.38;;;21.30;97.10;;;;;;5039662;28;20079;-79
2022/07/26 12:29:23;;;;;;;12.13;2.03;;;21.20;96.60;;;;;;5055895;28;20144;-78
2022/07/26 12:31:45;;;;;;;5.50;1.37;;;21.20;97.00;;;;;;5050658;28;20422;-78
2022/07/26 12:34:11;;;;;;;10.40;1.70;;;21.10;97.20;;;;;;5050551;28;20489;-79
2022/07/26 12:36:38;;;;;;;6.90;1.90;;;21.20;97.40;;;;;;5052356;28;20068;-79
2022/07/26 12:39:04;;;;;;;7.50;1.55;;;21.40;97.40;;;;;;5069902;28;20500;-78
2022/07/26 12:41:31;;;;;;;6.53;1.17;;;21.50;97.40;;;;;;5046934;28;20598;-79
2022/07/26 12:43:58;;;;;;;5.93;1.33;;;21.50;96.60;;;;;;5035064;28;20408;-79
2022/07/26 12:46:24;;;;;;;4.53;1.48;;;21.60;96.30;;;;;;5044040;28;20051;-79
2022/07/26 12:48:49;;;;;;;6.72;1.40;;;21.60;96.30;;;;;;5071230;28;20044;-79